sensor_id;sensor_type;location;lat;lon;timestamp;P1;durP1;ratioP1;P2;durP2;ratioP2
15858;SDS011;8029;52.202;7.308;2023-03-23T00:02:23;2.78;;;2.58;;
15858;SDS011;8029;52.202;7.308;2023-03-23T00:04:49;3.15;;;2.67;;
15858;SDS011;8029;52.202;7.308;2023-03-23T00:07:15;4.55;;;2.95;;
15858;SDS011;8029;52.202;7.308;2023-03-23T00:09:46;2.55;;;2.35;;
15858;SDS011;8029;52.202;7.308;2023-03-23T00:12:12;3.25;;;2.20;;
15858;SDS011;8029;52.202;7.308;2023-03-23T00:14:40;2.10;;;1.90;;
15858;SDS011;8029;52.202;7.308;2023-03-23T00:17:07;2.58;;;2.08;;
15858;SDS011;8029;52.202;7.308;2023-03-23T00:19:35;2.20;;;2.05;;
15858;SDS011;8029;52.202;7.308;2023-03-23T00:22:11;1.92;;;1.83;;
15858;SDS011;8029;52.202;7.308;2023-03-23T00:24:37;7.72;;;2.50;;
15858;SDS011;8029;52.202;7.308;2023-03-23T00:27:03;2.92;;;2.25;;
15858;SDS011;8029;52.202;7.308;2023-03-23T00:29:29;4.88;;;2.58;;
15858;SDS011;8029;52.202;7.308;2023-03-23T00:31:57;1.80;;;1.70;;
15858;SDS011;8029;52.202;7.308;2023-03-23T00:34:23;2.60;;;1.60;;
15858;SDS011;8029;52.202;7.308;2023-03-23T00:36:53;2.78;;;2.40;;
15858;SDS011;8029;52.202;7.308;2023-03-23T00:39:23;2.35;;;2.13;;
15858;SDS011;8029;52.202;7.308;2023-03-23T00:41:50;2.42;;;2.22;;
15858;SDS011;8029;52.202;7.308;2023-03-23T00:44:16;2.90;;;1.58;;
15858;SDS011;8029;52.202;7.308;2023-03-23T00:46:43;2.55;;;2.08;;
15858;SDS011;8029;52.202;7.308;2023-03-23T00:49:14;2.67;;;1.73;;
15858;SDS011;8029;52.202;7.308;2023-03-23T00:51:41;2.42;;;2.22;;
15858;SDS011;8029;52.202;7.308;2023-03-23T00:54:07;3.75;;;3.20;;
15858;SDS011;8029;52.202;7.308;2023-03-23T00:56:33;5.55;;;2.50;;
15858;SDS011;8029;52.202;7.308;2023-03-23T00:59:00;1.90;;;1.80;;
15858;SDS011;8029;52.202;7.308;2023-03-23T01:01:26;3.85;;;2.88;;
15858;SDS011;8029;52.202;7.308;2023-03-23T01:03:51;2.83;;;2.30;;
15858;SDS011;8029;52.202;7.308;2023-03-23T01:06:28;2.63;;;1.80;;
15858;SDS011;8029;52.202;7.308;2023-03-23T01:08:55;5.50;;;2.53;;
15858;SDS011;8029;52.202;7.308;2023-03-23T01:11:22;2.95;;;1.60;;
15858;SDS011;8029;52.202;7.308;2023-03-23T01:13:49;2.67;;;2.13;;
15858;SDS011;8029;52.202;7.308;2023-03-23T01:16:16;14.27;;;3.05;;
15858;SDS011;8029;52.202;7.308;2023-03-23T01:18:41;2.08;;;1.90;;
15858;SDS011;8029;52.202;7.308;2023-03-23T01:21:12;2.85;;;2.60;;
15858;SDS011;8029;52.202;7.308;2023-03-23T01:23:38;4.88;;;2.53;;
15858;SDS011;8029;52.202;7.308;2023-03-23T01:28:32;2.35;;;2.13;;
15858;SDS011;8029;52.202;7.308;2023-03-23T01:31:02;12.50;;;3.03;;
15858;SDS011;8029;52.202;7.308;2023-03-23T01:33:28;3.53;;;2.08;;
15858;SDS011;8029;52.202;7.308;2023-03-23T01:35:55;1.75;;;1.65;;
15858;SDS011;8029;52.202;7.308;2023-03-23T01:38:21;1.90;;;1.80;;
15858;SDS011;8029;52.202;7.308;2023-03-23T01:40:47;4.07;;;2.63;;
15858;SDS011;8029;52.202;7.308;2023-03-23T01:43:13;2.50;;;1.58;;
15858;SDS011;8029;52.202;7.308;2023-03-23T01:45:40;1.52;;;1.42;;
15858;SDS011;8029;52.202;7.308;2023-03-23T01:48:14;3.08;;;2.78;;
15858;SDS011;8029;52.202;7.308;2023-03-23T01:53:10;2.55;;;2.35;;
15858;SDS011;8029;52.202;7.308;2023-03-23T01:55:38;1.80;;;1.70;;
15858;SDS011;8029;52.202;7.308;2023-03-23T01:58:05;2.40;;;2.10;;
15858;SDS011;8029;52.202;7.308;2023-03-23T02:00:32;1.58;;;1.48;;
15858;SDS011;8029;52.202;7.308;2023-03-23T02:02:58;2.03;;;1.80;;
15858;SDS011;8029;52.202;7.308;2023-03-23T02:05:39;1.52;;;1.42;;
15858;SDS011;8029;52.202;7.308;2023-03-23T02:08:06;7.50;;;2.53;;
15858;SDS011;8029;52.202;7.308;2023-03-23T02:10:33;3.10;;;2.22;;
15858;SDS011;8029;52.202;7.308;2023-03-23T02:13:00;1.70;;;1.60;;
15858;SDS011;8029;52.202;7.308;2023-03-23T02:15:27;1.50;;;1.40;;
15858;SDS011;8029;52.202;7.308;2023-03-23T02:23:19;5.95;;;2.08;;
15858;SDS011;8029;52.202;7.308;2023-03-23T02:38:20;6.32;;;1.83;;
15858;SDS011;8029;52.202;7.308;2023-03-23T02:40:47;1.63;;;1.52;;
15858;SDS011;8029;52.202;7.308;2023-03-23T02:43:15;1.30;;;1.30;;
15858;SDS011;8029;52.202;7.308;2023-03-23T02:45:43;2.30;;;1.73;;
15858;SDS011;8029;52.202;7.308;2023-03-23T02:48:10;2.88;;;1.73;;
15858;SDS011;8029;52.202;7.308;2023-03-23T02:50:38;2.53;;;2.33;;
15858;SDS011;8029;52.202;7.308;2023-03-23T02:53:07;2.55;;;2.35;;
15858;SDS011;8029;52.202;7.308;2023-03-23T02:55:34;1.70;;;1.58;;
15858;SDS011;8029;52.202;7.308;2023-03-23T02:58:05;2.60;;;1.70;;
15858;SDS011;8029;52.202;7.308;2023-03-23T03:00:31;1.50;;;1.40;;
15858;SDS011;8029;52.202;7.308;2023-03-23T03:02:57;2.38;;;1.92;;
15858;SDS011;8029;52.202;7.308;2023-03-23T03:08:06;2.42;;;2.22;;
15858;SDS011;8029;52.202;7.308;2023-03-23T03:10:36;2.65;;;2.45;;
15858;SDS011;8029;52.202;7.308;2023-03-23T03:15:49;2.25;;;2.10;;
15858;SDS011;8029;52.202;7.308;2023-03-23T03:18:24;2.28;;;1.75;;
15858;SDS011;8029;52.202;7.308;2023-03-23T03:20:53;2.75;;;1.60;;
15858;SDS011;8029;52.202;7.308;2023-03-23T03:23:23;2.65;;;2.45;;
15858;SDS011;8029;52.202;7.308;2023-03-23T03:25:50;3.42;;;1.98;;
15858;SDS011;8029;52.202;7.308;2023-03-23T03:28:18;3.30;;;2.22;;
15858;SDS011;8029;52.202;7.308;2023-03-23T03:30:47;2.50;;;2.30;;
15858;SDS011;8029;52.202;7.308;2023-03-23T03:33:16;2.42;;;2.22;;
15858;SDS011;8029;52.202;7.308;2023-03-23T03:35:42;2.55;;;2.08;;
15858;SDS011;8029;52.202;7.308;2023-03-23T03:38:09;3.47;;;1.95;;
15858;SDS011;8029;52.202;7.308;2023-03-23T03:40:36;3.50;;;2.47;;
15858;SDS011;8029;52.202;7.308;2023-03-23T03:43:02;2.40;;;2.20;;
15858;SDS011;8029;52.202;7.308;2023-03-23T03:45:29;2.78;;;2.30;;
15858;SDS011;8029;52.202;7.308;2023-03-23T03:47:55;3.50;;;2.22;;
15858;SDS011;8029;52.202;7.308;2023-03-23T03:50:21;1.88;;;1.77;;
15858;SDS011;8029;52.202;7.308;2023-03-23T03:52:48;2.50;;;2.13;;
15858;SDS011;8029;52.202;7.308;2023-03-23T03:55:14;6.15;;;2.85;;
15858;SDS011;8029;52.202;7.308;2023-03-23T03:57:42;1.95;;;1.85;;
15858;SDS011;8029;52.202;7.308;2023-03-23T04:00:09;1.77;;;1.67;;
15858;SDS011;8029;52.202;7.308;2023-03-23T04:02:45;3.00;;;2.17;;
15858;SDS011;8029;52.202;7.308;2023-03-23T04:05:20;1.60;;;1.50;;
15858;SDS011;8029;52.202;7.308;2023-03-23T04:07:47;3.13;;;2.33;;
15858;SDS011;8029;52.202;7.308;2023-03-23T04:10:16;2.72;;;2.10;;
15858;SDS011;8029;52.202;7.308;2023-03-23T04:12:44;2.25;;;1.95;;
15858;SDS011;8029;52.202;7.308;2023-03-23T04:15:10;2.72;;;2.33;;
15858;SDS011;8029;52.202;7.308;2023-03-23T04:17:36;3.22;;;2.60;;
15858;SDS011;8029;52.202;7.308;2023-03-23T04:20:03;2.20;;;2.00;;
15858;SDS011;8029;52.202;7.308;2023-03-23T04:22:38;3.15;;;2.00;;
15858;SDS011;8029;52.202;7.308;2023-03-23T04:25:04;2.13;;;1.98;;
15858;SDS011;8029;52.202;7.308;2023-03-23T04:27:31;3.15;;;2.22;;
15858;SDS011;8029;52.202;7.308;2023-03-23T04:29:58;2.70;;;2.13;;
15858;SDS011;8029;52.202;7.308;2023-03-23T04:32:30;5.85;;;2.05;;
15858;SDS011;8029;52.202;7.308;2023-03-23T04:34:56;2.58;;;2.38;;
15858;SDS011;8029;52.202;7.308;2023-03-23T04:37:24;2.67;;;2.40;;
15858;SDS011;8029;52.202;7.308;2023-03-23T04:39:59;1.55;;;1.45;;
15858;SDS011;8029;52.202;7.308;2023-03-23T04:42:32;4.90;;;2.67;;
15858;SDS011;8029;52.202;7.308;2023-03-23T04:44:58;3.28;;;2.15;;
15858;SDS011;8029;52.202;7.308;2023-03-23T04:47:25;4.00;;;2.15;;
15858;SDS011;8029;52.202;7.308;2023-03-23T04:49:55;2.65;;;2.40;;
15858;SDS011;8029;52.202;7.308;2023-03-23T04:52:21;4.45;;;2.50;;
15858;SDS011;8029;52.202;7.308;2023-03-23T04:54:49;2.92;;;2.55;;
15858;SDS011;8029;52.202;7.308;2023-03-23T04:57:15;5.40;;;3.30;;
15858;SDS011;8029;52.202;7.308;2023-03-23T04:59:42;3.20;;;2.47;;
15858;SDS011;8029;52.202;7.308;2023-03-23T05:02:09;4.00;;;2.55;;
15858;SDS011;8029;52.202;7.308;2023-03-23T05:04:35;3.92;;;2.35;;
15858;SDS011;8029;52.202;7.308;2023-03-23T05:07:02;3.92;;;2.83;;
15858;SDS011;8029;52.202;7.308;2023-03-23T05:09:28;2.17;;;2.03;;
15858;SDS011;8029;52.202;7.308;2023-03-23T05:11:54;3.10;;;2.80;;
15858;SDS011;8029;52.202;7.308;2023-03-23T05:14:21;2.70;;;2.17;;
15858;SDS011;8029;52.202;7.308;2023-03-23T05:16:47;2.65;;;2.42;;
15858;SDS011;8029;52.202;7.308;2023-03-23T05:19:14;2.55;;;2.35;;
15858;SDS011;8029;52.202;7.308;2023-03-23T05:21:40;4.95;;;3.10;;
15858;SDS011;8029;52.202;7.308;2023-03-23T05:24:06;2.53;;;2.00;;
15858;SDS011;8029;52.202;7.308;2023-03-23T05:26:32;4.20;;;2.60;;
15858;SDS011;8029;52.202;7.308;2023-03-23T05:28:59;3.17;;;2.10;;
15858;SDS011;8029;52.202;7.308;2023-03-23T05:31:25;2.00;;;1.80;;
15858;SDS011;8029;52.202;7.308;2023-03-23T05:33:51;2.80;;;2.08;;
15858;SDS011;8029;52.202;7.308;2023-03-23T05:36:17;3.67;;;2.22;;
15858;SDS011;8029;52.202;7.308;2023-03-23T05:38:45;2.42;;;2.22;;
15858;SDS011;8029;52.202;7.308;2023-03-23T05:41:13;2.45;;;2.17;;
15858;SDS011;8029;52.202;7.308;2023-03-23T05:43:39;1.98;;;1.80;;
15858;SDS011;8029;52.202;7.308;2023-03-23T05:46:06;1.35;;;1.25;;
15858;SDS011;8029;52.202;7.308;2023-03-23T05:48:32;1.38;;;1.30;;
15858;SDS011;8029;52.202;7.308;2023-03-23T05:51:03;1.73;;;1.60;;
15858;SDS011;8029;52.202;7.308;2023-03-23T05:53:29;3.53;;;2.33;;
15858;SDS011;8029;52.202;7.308;2023-03-23T05:56:01;1.73;;;1.63;;
15858;SDS011;8029;52.202;7.308;2023-03-23T05:58:28;2.30;;;1.80;;
15858;SDS011;8029;52.202;7.308;2023-03-23T06:00:54;1.65;;;1.50;;
15858;SDS011;8029;52.202;7.308;2023-03-23T06:03:20;1.75;;;1.23;;
15858;SDS011;8029;52.202;7.308;2023-03-23T06:05:47;2.83;;;1.83;;
15858;SDS011;8029;52.202;7.308;2023-03-23T06:08:13;2.65;;;2.45;;
15858;SDS011;8029;52.202;7.308;2023-03-23T06:10:43;6.22;;;2.03;;
15858;SDS011;8029;52.202;7.308;2023-03-23T06:13:09;4.50;;;1.60;;
15858;SDS011;8029;52.202;7.308;2023-03-23T06:15:35;2.70;;;1.45;;
15858;SDS011;8029;52.202;7.308;2023-03-23T06:18:05;2.55;;;1.83;;
15858;SDS011;8029;52.202;7.308;2023-03-23T06:20:31;2.03;;;1.63;;
15858;SDS011;8029;52.202;7.308;2023-03-23T06:22:58;2.15;;;1.83;;
15858;SDS011;8029;52.202;7.308;2023-03-23T06:25:24;2.13;;;1.60;;
15858;SDS011;8029;52.202;7.308;2023-03-23T06:27:50;1.60;;;1.50;;
15858;SDS011;8029;52.202;7.308;2023-03-23T06:30:17;1.80;;;1.70;;
15858;SDS011;8029;52.202;7.308;2023-03-23T06:32:43;2.25;;;1.73;;
15858;SDS011;8029;52.202;7.308;2023-03-23T06:35:12;2.88;;;2.10;;
15858;SDS011;8029;52.202;7.308;2023-03-23T06:37:38;2.85;;;1.90;;
15858;SDS011;8029;52.202;7.308;2023-03-23T06:40:05;1.98;;;1.77;;
15858;SDS011;8029;52.202;7.308;2023-03-23T06:42:31;1.98;;;1.77;;
15858;SDS011;8029;52.202;7.308;2023-03-23T06:44:58;1.85;;;1.75;;
15858;SDS011;8029;52.202;7.308;2023-03-23T06:47:25;1.52;;;1.42;;
15858;SDS011;8029;52.202;7.308;2023-03-23T06:49:52;2.47;;;1.50;;
15858;SDS011;8029;52.202;7.308;2023-03-23T06:52:18;2.15;;;1.42;;
15858;SDS011;8029;52.202;7.308;2023-03-23T06:54:44;2.00;;;1.60;;
15858;SDS011;8029;52.202;7.308;2023-03-23T06:57:10;2.50;;;1.63;;
15858;SDS011;8029;52.202;7.308;2023-03-23T06:59:36;1.67;;;1.58;;
15858;SDS011;8029;52.202;7.308;2023-03-23T07:02:02;6.57;;;1.98;;
15858;SDS011;8029;52.202;7.308;2023-03-23T07:04:29;1.33;;;1.23;;
15858;SDS011;8029;52.202;7.308;2023-03-23T07:06:55;2.83;;;1.90;;
15858;SDS011;8029;52.202;7.308;2023-03-23T07:09:21;2.15;;;1.45;;
15858;SDS011;8029;52.202;7.308;2023-03-23T07:11:47;1.45;;;1.35;;
15858;SDS011;8029;52.202;7.308;2023-03-23T07:14:16;1.13;;;1.08;;
15858;SDS011;8029;52.202;7.308;2023-03-23T07:16:42;3.05;;;1.80;;
15858;SDS011;8029;52.202;7.308;2023-03-23T07:19:08;3.42;;;1.67;;
15858;SDS011;8029;52.202;7.308;2023-03-23T07:21:34;2.38;;;2.17;;
15858;SDS011;8029;52.202;7.308;2023-03-23T07:24:00;1.95;;;1.42;;
15858;SDS011;8029;52.202;7.308;2023-03-23T07:26:26;2.20;;;1.88;;
15858;SDS011;8029;52.202;7.308;2023-03-23T07:28:52;4.00;;;1.70;;
15858;SDS011;8029;52.202;7.308;2023-03-23T07:31:18;4.43;;;2.03;;
15858;SDS011;8029;52.202;7.308;2023-03-23T07:33:44;1.88;;;1.67;;
15858;SDS011;8029;52.202;7.308;2023-03-23T07:36:11;2.83;;;1.42;;
15858;SDS011;8029;52.202;7.308;2023-03-23T07:38:37;2.08;;;1.65;;
15858;SDS011;8029;52.202;7.308;2023-03-23T07:41:03;2.50;;;2.05;;
15858;SDS011;8029;52.202;7.308;2023-03-23T07:43:30;1.63;;;1.50;;
15858;SDS011;8029;52.202;7.308;2023-03-23T07:45:56;1.92;;;1.65;;
15858;SDS011;8029;52.202;7.308;2023-03-23T07:48:23;1.63;;;1.52;;
15858;SDS011;8029;52.202;7.308;2023-03-23T07:50:48;2.17;;;1.63;;
15858;SDS011;8029;52.202;7.308;2023-03-23T07:53:15;1.52;;;1.20;;
15858;SDS011;8029;52.202;7.308;2023-03-23T07:55:41;2.85;;;1.85;;
15858;SDS011;8029;52.202;7.308;2023-03-23T07:58:07;2.22;;;1.75;;
15858;SDS011;8029;52.202;7.308;2023-03-23T08:00:33;1.63;;;1.52;;
15858;SDS011;8029;52.202;7.308;2023-03-23T08:03:00;1.48;;;1.38;;
15858;SDS011;8029;52.202;7.308;2023-03-23T08:05:27;1.67;;;1.58;;
15858;SDS011;8029;52.202;7.308;2023-03-23T08:07:54;1.08;;;1.05;;
15858;SDS011;8029;52.202;7.308;2023-03-23T08:10:21;1.50;;;1.42;;
15858;SDS011;8029;52.202;7.308;2023-03-23T08:12:50;5.80;;;1.23;;
15858;SDS011;8029;52.202;7.308;2023-03-23T08:15:16;16.27;;;2.05;;
15858;SDS011;8029;52.202;7.308;2023-03-23T08:17:43;2.05;;;1.48;;
15858;SDS011;8029;52.202;7.308;2023-03-23T08:20:10;2.92;;;1.80;;
15858;SDS011;8029;52.202;7.308;2023-03-23T08:22:41;2.08;;;1.58;;
15858;SDS011;8029;52.202;7.308;2023-03-23T08:25:09;3.00;;;1.63;;
15858;SDS011;8029;52.202;7.308;2023-03-23T08:27:35;1.25;;;1.15;;
15858;SDS011;8029;52.202;7.308;2023-03-23T08:30:02;2.10;;;1.20;;
15858;SDS011;8029;52.202;7.308;2023-03-23T08:32:31;1.50;;;1.40;;
15858;SDS011;8029;52.202;7.308;2023-03-23T08:34:57;1.92;;;1.65;;
15858;SDS011;8029;52.202;7.308;2023-03-23T08:37:24;3.10;;;1.77;;
15858;SDS011;8029;52.202;7.308;2023-03-23T08:39:51;1.48;;;1.30;;
15858;SDS011;8029;52.202;7.308;2023-03-23T08:42:17;3.63;;;1.65;;
15858;SDS011;8029;52.202;7.308;2023-03-23T08:44:43;2.92;;;1.30;;
15858;SDS011;8029;52.202;7.308;2023-03-23T08:47:09;1.48;;;0.95;;
15858;SDS011;8029;52.202;7.308;2023-03-23T08:49:35;3.30;;;1.55;;
15858;SDS011;8029;52.202;7.308;2023-03-23T08:52:02;2.70;;;1.00;;
15858;SDS011;8029;52.202;7.308;2023-03-23T08:54:29;0.82;;;0.70;;
15858;SDS011;8029;52.202;7.308;2023-03-23T08:56:59;1.77;;;1.65;;
15858;SDS011;8029;52.202;7.308;2023-03-23T08:59:25;2.83;;;1.48;;
15858;SDS011;8029;52.202;7.308;2023-03-23T09:01:52;1.00;;;0.68;;
15858;SDS011;8029;52.202;7.308;2023-03-23T09:04:18;0.70;;;0.70;;
15858;SDS011;8029;52.202;7.308;2023-03-23T09:06:44;0.65;;;0.60;;
15858;SDS011;8029;52.202;7.308;2023-03-23T09:09:10;3.17;;;0.98;;
15858;SDS011;8029;52.202;7.308;2023-03-23T09:11:36;1.05;;;1.02;;
15858;SDS011;8029;52.202;7.308;2023-03-23T09:14:03;0.85;;;0.60;;
15858;SDS011;8029;52.202;7.308;2023-03-23T09:16:31;0.90;;;0.85;;
15858;SDS011;8029;52.202;7.308;2023-03-23T09:18:57;1.00;;;0.70;;
15858;SDS011;8029;52.202;7.308;2023-03-23T09:21:24;1.45;;;0.85;;
15858;SDS011;8029;52.202;7.308;2023-03-23T09:23:50;1.90;;;1.30;;
15858;SDS011;8029;52.202;7.308;2023-03-23T09:26:16;3.03;;;1.38;;
15858;SDS011;8029;52.202;7.308;2023-03-23T09:28:42;0.77;;;0.77;;
15858;SDS011;8029;52.202;7.308;2023-03-23T09:31:10;1.30;;;0.77;;
15858;SDS011;8029;52.202;7.308;2023-03-23T09:33:37;0.15;;;0.15;;
15858;SDS011;8029;52.202;7.308;2023-03-23T09:36:03;6.80;;;1.05;;
15858;SDS011;8029;52.202;7.308;2023-03-23T09:38:30;1.10;;;0.80;;
15858;SDS011;8029;52.202;7.308;2023-03-23T09:48:49;1.73;;;0.50;;
15858;SDS011;8029;52.202;7.308;2023-03-23T09:51:22;1.15;;;1.05;;
15858;SDS011;8029;52.202;7.308;2023-03-23T09:53:52;1.10;;;0.80;;
15858;SDS011;8029;52.202;7.308;2023-03-23T09:56:19;1.02;;;0.68;;
15858;SDS011;8029;52.202;7.308;2023-03-23T09:58:48;0.98;;;0.90;;
15858;SDS011;8029;52.202;7.308;2023-03-23T10:01:17;2.53;;;1.13;;
15858;SDS011;8029;52.202;7.308;2023-03-23T10:03:46;2.15;;;0.80;;
15858;SDS011;8029;52.202;7.308;2023-03-23T10:06:13;1.08;;;0.85;;
15858;SDS011;8029;52.202;7.308;2023-03-23T10:08:44;1.50;;;1.20;;
15858;SDS011;8029;52.202;7.308;2023-03-23T10:11:22;1.10;;;0.90;;
15858;SDS011;8029;52.202;7.308;2023-03-23T10:16:37;0.90;;;0.60;;
15858;SDS011;8029;52.202;7.308;2023-03-23T10:22:01;2.47;;;0.88;;
15858;SDS011;8029;52.202;7.308;2023-03-23T10:24:49;0.45;;;0.45;;
15858;SDS011;8029;52.202;7.308;2023-03-23T10:27:25;1.77;;;0.95;;
15858;SDS011;8029;52.202;7.308;2023-03-23T10:29:55;1.75;;;0.90;;
15858;SDS011;8029;52.202;7.308;2023-03-23T10:32:36;0.60;;;0.52;;
15858;SDS011;8029;52.202;7.308;2023-03-23T10:35:06;0.60;;;0.60;;
15858;SDS011;8029;52.202;7.308;2023-03-23T10:37:42;0.60;;;0.60;;
15858;SDS011;8029;52.202;7.308;2023-03-23T10:40:18;1.30;;;1.00;;
15858;SDS011;8029;52.202;7.308;2023-03-23T10:42:45;0.77;;;0.55;;
15858;SDS011;8029;52.202;7.308;2023-03-23T10:45:16;0.50;;;0.50;;
15858;SDS011;8029;52.202;7.308;2023-03-23T10:47:46;3.40;;;1.13;;
15858;SDS011;8029;52.202;7.308;2023-03-23T10:50:13;2.38;;;0.75;;
15858;SDS011;8029;52.202;7.308;2023-03-23T10:52:41;0.70;;;0.70;;
15858;SDS011;8029;52.202;7.308;2023-03-23T10:55:12;1.08;;;0.75;;
15858;SDS011;8029;52.202;7.308;2023-03-23T10:57:39;3.70;;;1.23;;
15858;SDS011;8029;52.202;7.308;2023-03-23T11:02:41;0.98;;;0.90;;
15858;SDS011;8029;52.202;7.308;2023-03-23T11:05:18;0.63;;;0.52;;
15858;SDS011;8029;52.202;7.308;2023-03-23T11:07:49;0.55;;;0.55;;
15858;SDS011;8029;52.202;7.308;2023-03-23T11:10:18;0.60;;;0.60;;
15858;SDS011;8029;52.202;7.308;2023-03-23T11:12:46;0.70;;;0.57;;
15858;SDS011;8029;52.202;7.308;2023-03-23T11:15:29;0.60;;;0.60;;
15858;SDS011;8029;52.202;7.308;2023-03-23T11:17:56;0.93;;;0.70;;
15858;SDS011;8029;52.202;7.308;2023-03-23T11:20:23;0.73;;;0.60;;
15858;SDS011;8029;52.202;7.308;2023-03-23T11:22:49;0.90;;;0.90;;
15858;SDS011;8029;52.202;7.308;2023-03-23T11:25:15;1.05;;;1.05;;
15858;SDS011;8029;52.202;7.308;2023-03-23T11:27:41;0.80;;;0.80;;
15858;SDS011;8029;52.202;7.308;2023-03-23T11:30:09;0.80;;;0.80;;
15858;SDS011;8029;52.202;7.308;2023-03-23T11:32:35;1.25;;;0.85;;
15858;SDS011;8029;52.202;7.308;2023-03-23T11:35:06;5.70;;;1.10;;
15858;SDS011;8029;52.202;7.308;2023-03-23T11:37:41;0.65;;;0.57;;
15858;SDS011;8029;52.202;7.308;2023-03-23T11:42:42;0.82;;;0.68;;
15858;SDS011;8029;52.202;7.308;2023-03-23T11:47:45;1.45;;;1.25;;
15858;SDS011;8029;52.202;7.308;2023-03-23T11:55:32;0.88;;;0.73;;
15858;SDS011;8029;52.202;7.308;2023-03-23T11:58:00;2.28;;;0.70;;
15858;SDS011;8029;52.202;7.308;2023-03-23T12:00:30;4.07;;;1.20;;
15858;SDS011;8029;52.202;7.308;2023-03-23T12:02:58;0.95;;;0.90;;
15858;SDS011;8029;52.202;7.308;2023-03-23T12:10:45;1.25;;;1.08;;
15858;SDS011;8029;52.202;7.308;2023-03-23T12:16:07;2.25;;;1.13;;
15858;SDS011;8029;52.202;7.308;2023-03-23T12:21:27;2.03;;;1.05;;
15858;SDS011;8029;52.202;7.308;2023-03-23T12:24:11;0.95;;;0.70;;
15858;SDS011;8029;52.202;7.308;2023-03-23T12:27:29;0.77;;;0.75;;
15858;SDS011;8029;52.202;7.308;2023-03-23T12:29:42;2.50;;;1.40;;
15858;SDS011;8029;52.202;7.308;2023-03-23T12:45:08;5.75;;;1.60;;
15858;SDS011;8029;52.202;7.308;2023-03-23T12:50:19;1.45;;;1.00;;
15858;SDS011;8029;52.202;7.308;2023-03-23T12:52:50;1.17;;;0.88;;
15858;SDS011;8029;52.202;7.308;2023-03-23T12:55:20;10.00;;;1.85;;
15858;SDS011;8029;52.202;7.308;2023-03-23T12:57:50;1.90;;;0.90;;
15858;SDS011;8029;52.202;7.308;2023-03-23T13:05:36;1.35;;;0.98;;
15858;SDS011;8029;52.202;7.308;2023-03-23T13:08:14;1.00;;;0.88;;
15858;SDS011;8029;52.202;7.308;2023-03-23T13:10:49;1.02;;;0.65;;
15858;SDS011;8029;52.202;7.308;2023-03-23T13:13:39;4.05;;;0.98;;
15858;SDS011;8029;52.202;7.308;2023-03-23T13:18:41;1.42;;;1.08;;
15858;SDS011;8029;52.202;7.308;2023-03-23T13:21:18;1.33;;;0.90;;
15858;SDS011;8029;52.202;7.308;2023-03-23T13:23:59;20.45;;;1.25;;
15858;SDS011;8029;52.202;7.308;2023-03-23T13:26:29;2.10;;;1.50;;
15858;SDS011;8029;52.202;7.308;2023-03-23T13:28:57;2.33;;;1.70;;
15858;SDS011;8029;52.202;7.308;2023-03-23T13:33:57;2.15;;;1.30;;
15858;SDS011;8029;52.202;7.308;2023-03-23T13:36:40;1.48;;;1.08;;
15858;SDS011;8029;52.202;7.308;2023-03-23T13:39:17;1.10;;;1.00;;
15858;SDS011;8029;52.202;7.308;2023-03-23T13:41:48;0.90;;;0.90;;
15858;SDS011;8029;52.202;7.308;2023-03-23T13:44:16;1.88;;;1.20;;
15858;SDS011;8029;52.202;7.308;2023-03-23T13:46:53;1.27;;;1.02;;
15858;SDS011;8029;52.202;7.308;2023-03-23T13:49:20;1.75;;;1.15;;
15858;SDS011;8029;52.202;7.308;2023-03-23T13:54:24;1.85;;;1.35;;
15858;SDS011;8029;52.202;7.308;2023-03-23T13:56:53;1.63;;;1.10;;
15858;SDS011;8029;52.202;7.308;2023-03-23T13:59:33;1.63;;;1.13;;
15858;SDS011;8029;52.202;7.308;2023-03-23T14:04:45;1.90;;;1.00;;
15858;SDS011;8029;52.202;7.308;2023-03-23T14:07:15;3.20;;;0.95;;
15858;SDS011;8029;52.202;7.308;2023-03-23T14:09:43;1.02;;;0.93;;
15858;SDS011;8029;52.202;7.308;2023-03-23T14:14:41;1.30;;;0.93;;
15858;SDS011;8029;52.202;7.308;2023-03-23T14:17:11;1.75;;;1.20;;
15858;SDS011;8029;52.202;7.308;2023-03-23T14:19:38;1.80;;;0.88;;
15858;SDS011;8029;52.202;7.308;2023-03-23T14:22:14;2.75;;;0.70;;
15858;SDS011;8029;52.202;7.308;2023-03-23T14:24:42;3.88;;;1.60;;
15858;SDS011;8029;52.202;7.308;2023-03-23T14:27:09;4.00;;;0.82;;
15858;SDS011;8029;52.202;7.308;2023-03-23T14:29:36;4.85;;;0.85;;
15858;SDS011;8029;52.202;7.308;2023-03-23T14:32:02;0.77;;;0.77;;
15858;SDS011;8029;52.202;7.308;2023-03-23T14:34:31;1.95;;;1.13;;
15858;SDS011;8029;52.202;7.308;2023-03-23T14:36:58;3.15;;;1.25;;
15858;SDS011;8029;52.202;7.308;2023-03-23T14:39:33;1.65;;;1.02;;
15858;SDS011;8029;52.202;7.308;2023-03-23T14:42:13;0.75;;;0.75;;
15858;SDS011;8029;52.202;7.308;2023-03-23T14:44:43;6.18;;;1.20;;
15858;SDS011;8029;52.202;7.308;2023-03-23T14:47:13;1.77;;;0.82;;
15858;SDS011;8029;52.202;7.308;2023-03-23T14:49:42;1.65;;;1.25;;
15858;SDS011;8029;52.202;7.308;2023-03-23T14:54:35;4.43;;;1.17;;
15858;SDS011;8029;52.202;7.308;2023-03-23T14:57:10;10.38;;;0.90;;
15858;SDS011;8029;52.202;7.308;2023-03-23T14:59:39;0.68;;;0.68;;
15858;SDS011;8029;52.202;7.308;2023-03-23T15:02:05;0.57;;;0.57;;
15858;SDS011;8029;52.202;7.308;2023-03-23T15:04:32;2.08;;;0.80;;
15858;SDS011;8029;52.202;7.308;2023-03-23T15:07:02;1.60;;;1.08;;
15858;SDS011;8029;52.202;7.308;2023-03-23T15:09:28;1.15;;;0.90;;
15858;SDS011;8029;52.202;7.308;2023-03-23T15:11:59;1.33;;;1.00;;
15858;SDS011;8029;52.202;7.308;2023-03-23T15:14:27;2.20;;;1.17;;
15858;SDS011;8029;52.202;7.308;2023-03-23T15:16:54;2.70;;;1.35;;
15858;SDS011;8029;52.202;7.308;2023-03-23T15:19:23;1.27;;;0.82;;
15858;SDS011;8029;52.202;7.308;2023-03-23T15:21:54;0.68;;;0.68;;
15858;SDS011;8029;52.202;7.308;2023-03-23T15:24:25;1.13;;;0.88;;
15858;SDS011;8029;52.202;7.308;2023-03-23T15:26:51;0.68;;;0.68;;
15858;SDS011;8029;52.202;7.308;2023-03-23T15:29:18;1.70;;;0.80;;
15858;SDS011;8029;52.202;7.308;2023-03-23T15:31:52;7.10;;;1.13;;
15858;SDS011;8029;52.202;7.308;2023-03-23T15:36:54;0.63;;;0.60;;
15858;SDS011;8029;52.202;7.308;2023-03-23T15:39:20;1.73;;;0.90;;
15858;SDS011;8029;52.202;7.308;2023-03-23T15:41:48;1.80;;;0.85;;
15858;SDS011;8029;52.202;7.308;2023-03-23T15:44:54;1.00;;;0.90;;
15858;SDS011;8029;52.202;7.308;2023-03-23T15:49:35;0.77;;;0.77;;
15858;SDS011;8029;52.202;7.308;2023-03-23T15:52:01;1.90;;;1.08;;
15858;SDS011;8029;52.202;7.308;2023-03-23T15:54:29;11.65;;;1.08;;
15858;SDS011;8029;52.202;7.308;2023-03-23T15:56:56;1.02;;;0.98;;
15858;SDS011;8029;52.202;7.308;2023-03-23T15:59:22;3.75;;;1.20;;
15858;SDS011;8029;52.202;7.308;2023-03-23T16:01:48;0.93;;;0.75;;
15858;SDS011;8029;52.202;7.308;2023-03-23T16:04:15;0.68;;;0.68;;
15858;SDS011;8029;52.202;7.308;2023-03-23T16:06:42;1.48;;;1.25;;
15858;SDS011;8029;52.202;7.308;2023-03-23T16:09:12;1.20;;;1.10;;
15858;SDS011;8029;52.202;7.308;2023-03-23T16:11:39;0.95;;;0.90;;
15858;SDS011;8029;52.202;7.308;2023-03-23T16:14:06;1.05;;;1.05;;
15858;SDS011;8029;52.202;7.308;2023-03-23T16:16:43;3.03;;;1.20;;
15858;SDS011;8029;52.202;7.308;2023-03-23T16:19:10;2.22;;;1.17;;
15858;SDS011;8029;52.202;7.308;2023-03-23T16:21:37;1.73;;;1.63;;
15858;SDS011;8029;52.202;7.308;2023-03-23T16:24:03;1.27;;;1.17;;
15858;SDS011;8029;52.202;7.308;2023-03-23T16:26:29;3.10;;;2.28;;
15858;SDS011;8029;52.202;7.308;2023-03-23T16:28:55;1.67;;;1.50;;
15858;SDS011;8029;52.202;7.308;2023-03-23T16:31:21;2.75;;;2.05;;
15858;SDS011;8029;52.202;7.308;2023-03-23T16:33:47;4.63;;;1.75;;
15858;SDS011;8029;52.202;7.308;2023-03-23T16:36:13;2.13;;;1.58;;
15858;SDS011;8029;52.202;7.308;2023-03-23T16:38:40;1.30;;;1.02;;
15858;SDS011;8029;52.202;7.308;2023-03-23T16:41:06;1.20;;;1.10;;
15858;SDS011;8029;52.202;7.308;2023-03-23T16:43:32;1.35;;;1.23;;
15858;SDS011;8029;52.202;7.308;2023-03-23T16:45:58;1.95;;;1.42;;
15858;SDS011;8029;52.202;7.308;2023-03-23T16:48:24;1.10;;;1.00;;
15858;SDS011;8029;52.202;7.308;2023-03-23T16:50:51;1.92;;;1.73;;
15858;SDS011;8029;52.202;7.308;2023-03-23T16:53:18;3.05;;;1.23;;
15858;SDS011;8029;52.202;7.308;2023-03-23T16:55:45;2.95;;;1.42;;